sensor_id;sensor_type;location;lat;lon;timestamp;temperature;humidity
20658;DHT22;10488;50.846;4.078;2022-11-20T00:00:15;4.40;99.90
20658;DHT22;10488;50.846;4.078;2022-11-20T00:02:41;4.30;99.90
20658;DHT22;10488;50.846;4.078;2022-11-20T00:05:07;4.50;99.90
20658;DHT22;10488;50.846;4.078;2022-11-20T00:07:33;4.50;99.90
20658;DHT22;10488;50.846;4.078;2022-11-20T00:09:59;4.80;99.90
20658;DHT22;10488;50.846;4.078;2022-11-20T00:12:25;4.90;99.90
20658;DHT22;10488;50.846;4.078;2022-11-20T00:14:51;5.00;99.90
20658;DHT22;10488;50.846;4.078;2022-11-20T00:17:17;5.00;99.90
20658;DHT22;10488;50.846;4.078;2022-11-20T00:19:43;5.10;99.90
20658;DHT22;10488;50.846;4.078;2022-11-20T00:22:09;5.00;99.90
20658;DHT22;10488;50.846;4.078;2022-11-20T00:24:35;4.70;99.90
20658;DHT22;10488;50.846;4.078;2022-11-20T00:27:01;4.60;99.90
20658;DHT22;10488;50.846;4.078;2022-11-20T00:29:26;4.70;99.90
20658;DHT22;10488;50.846;4.078;2022-11-20T00:31:53;4.90;99.90
20658;DHT22;10488;50.846;4.078;2022-11-20T00:34:19;5.10;99.90
20658;DHT22;10488;50.846;4.078;2022-11-20T00:36:45;5.10;99.90
20658;DHT22;10488;50.846;4.078;2022-11-20T00:39:10;5.00;99.90
20658;DHT22;10488;50.846;4.078;2022-11-20T00:41:37;5.00;99.90
20658;DHT22;10488;50.846;4.078;2022-11-20T00:44:04;5.20;99.90
20658;DHT22;10488;50.846;4.078;2022-11-20T00:46:29;4.90;99.90
20658;DHT22;10488;50.846;4.078;2022-11-20T00:48:57;5.10;99.90
20658;DHT22;10488;50.846;4.078;2022-11-20T00:51:25;5.20;99.90
20658;DHT22;10488;50.846;4.078;2022-11-20T00:53:51;5.40;99.90
20658;DHT22;10488;50.846;4.078;2022-11-20T00:56:18;5.10;99.90
20658;DHT22;10488;50.846;4.078;2022-11-20T00:58:46;5.00;99.90
20658;DHT22;10488;50.846;4.078;2022-11-20T01:01:17;5.10;99.90
20658;DHT22;10488;50.846;4.078;2022-11-20T01:03:46;4.80;99.90
20658;DHT22;10488;50.846;4.078;2022-11-20T01:06:21;4.80;99.90
20658;DHT22;10488;50.846;4.078;2022-11-20T01:08:49;4.90;99.90
20658;DHT22;10488;50.846;4.078;2022-11-20T01:11:19;5.00;99.90
20658;DHT22;10488;50.846;4.078;2022-11-20T01:13:46;4.70;99.90
20658;DHT22;10488;50.846;4.078;2022-11-20T01:16:17;4.50;99.90
20658;DHT22;10488;50.846;4.078;2022-11-20T01:18:45;4.40;99.90
20658;DHT22;10488;50.846;4.078;2022-11-20T01:21:15;4.50;99.90
20658;DHT22;10488;50.846;4.078;2022-11-20T01:23:44;4.70;99.90
20658;DHT22;10488;50.846;4.078;2022-11-20T01:26:12;4.50;99.90
20658;DHT22;10488;50.846;4.078;2022-11-20T01:28:39;4.30;99.90
20658;DHT22;10488;50.846;4.078;2022-11-20T01:31:25;4.40;99.90
20658;DHT22;10488;50.846;4.078;2022-11-20T01:33:53;4.40;99.90
20658;DHT22;10488;50.846;4.078;2022-11-20T01:36:21;4.60;99.90
20658;DHT22;10488;50.846;4.078;2022-11-20T01:38:51;4.60;99.90
20658;DHT22;10488;50.846;4.078;2022-11-20T01:41:18;4.80;99.90
20658;DHT22;10488;50.846;4.078;2022-11-20T01:44:04;5.00;99.90
20658;DHT22;10488;50.846;4.078;2022-11-20T01:46:33;4.50;99.90
20658;DHT22;10488;50.846;4.078;2022-11-20T01:51:45;4.60;99.90
20658;DHT22;10488;50.846;4.078;2022-11-20T01:54:18;4.80;99.90
20658;DHT22;10488;50.846;4.078;2022-11-20T01:56:46;4.80;99.90
20658;DHT22;10488;50.846;4.078;2022-11-20T01:59:17;4.90;99.90
20658;DHT22;10488;50.846;4.078;2022-11-20T02:01:43;5.20;99.90
20658;DHT22;10488;50.846;4.078;2022-11-20T02:04:10;5.10;99.90
20658;DHT22;10488;50.846;4.078;2022-11-20T02:06:49;5.10;99.90
20658;DHT22;10488;50.846;4.078;2022-11-20T02:09:15;5.20;99.90
20658;DHT22;10488;50.846;4.078;2022-11-20T02:11:41;5.40;99.90
20658;DHT22;10488;50.846;4.078;2022-11-20T02:14:08;5.40;99.90
20658;DHT22;10488;50.846;4.078;2022-11-20T02:16:44;5.60;99.90
20658;DHT22;10488;50.846;4.078;2022-11-20T02:19:27;5.30;99.90
20658;DHT22;10488;50.846;4.078;2022-11-20T02:24:37;5.40;99.90
20658;DHT22;10488;50.846;4.078;2022-11-20T02:27:07;5.40;99.90
20658;DHT22;10488;50.846;4.078;2022-11-20T02:29:47;5.40;99.90
20658;DHT22;10488;50.846;4.078;2022-11-20T02:32:23;5.30;99.90
20658;DHT22;10488;50.846;4.078;2022-11-20T02:34:49;5.50;99.90
20658;DHT22;10488;50.846;4.078;2022-11-20T02:37:15;5.60;99.90
20658;DHT22;10488;50.846;4.078;2022-11-20T02:39:42;5.70;99.90
20658;DHT22;10488;50.846;4.078;2022-11-20T02:42:08;5.60;99.90
20658;DHT22;10488;50.846;4.078;2022-11-20T02:44:35;5.60;99.90
20658;DHT22;10488;50.846;4.078;2022-11-20T02:47:00;5.70;99.90
20658;DHT22;10488;50.846;4.078;2022-11-20T02:49:27;5.70;99.90
20658;DHT22;10488;50.846;4.078;2022-11-20T02:51:53;5.80;99.90
20658;DHT22;10488;50.846;4.078;2022-11-20T02:54:20;5.90;99.90
20658;DHT22;10488;50.846;4.078;2022-11-20T02:56:46;5.80;99.90
20658;DHT22;10488;50.846;4.078;2022-11-20T02:59:11;5.90;99.90
20658;DHT22;10488;50.846;4.078;2022-11-20T03:01:38;6.00;99.90
20658;DHT22;10488;50.846;4.078;2022-11-20T03:04:04;6.00;99.90
20658;DHT22;10488;50.846;4.078;2022-11-20T03:06:31;6.00;99.90
20658;DHT22;10488;50.846;4.078;2022-11-20T03:08:57;5.70;99.90
20658;DHT22;10488;50.846;4.078;2022-11-20T03:11:24;5.70;99.90
20658;DHT22;10488;50.846;4.078;2022-11-20T03:13:51;5.70;99.90
20658;DHT22;10488;50.846;4.078;2022-11-20T03:16:20;5.70;99.90
20658;DHT22;10488;50.846;4.078;2022-11-20T03:18:46;5.80;99.90
20658;DHT22;10488;50.846;4.078;2022-11-20T03:21:13;5.70;99.90
20658;DHT22;10488;50.846;4.078;2022-11-20T03:23:40;5.70;99.90
20658;DHT22;10488;50.846;4.078;2022-11-20T03:26:10;5.60;99.90
20658;DHT22;10488;50.846;4.078;2022-11-20T03:28:37;5.50;99.90
20658;DHT22;10488;50.846;4.078;2022-11-20T03:31:09;5.60;99.90
20658;DHT22;10488;50.846;4.078;2022-11-20T03:33:36;5.60;99.90
20658;DHT22;10488;50.846;4.078;2022-11-20T03:36:05;5.70;99.90
20658;DHT22;10488;50.846;4.078;2022-11-20T03:38:31;5.80;99.90
20658;DHT22;10488;50.846;4.078;2022-11-20T03:41:05;5.70;99.90
20658;DHT22;10488;50.846;4.078;2022-11-20T03:43:31;5.70;99.90
20658;DHT22;10488;50.846;4.078;2022-11-20T03:45:59;5.70;99.90
20658;DHT22;10488;50.846;4.078;2022-11-20T03:48:27;5.70;99.90
20658;DHT22;10488;50.846;4.078;2022-11-20T03:51:12;5.50;99.90
20658;DHT22;10488;50.846;4.078;2022-11-20T03:53:39;5.50;99.90
20658;DHT22;10488;50.846;4.078;2022-11-20T03:56:05;5.50;99.90
20658;DHT22;10488;50.846;4.078;2022-11-20T03:58:33;5.50;99.90
20658;DHT22;10488;50.846;4.078;2022-11-20T04:01:12;5.50;99.90
20658;DHT22;10488;50.846;4.078;2022-11-20T04:03:40;5.50;99.90
20658;DHT22;10488;50.846;4.078;2022-11-20T04:06:18;5.60;99.90
20658;DHT22;10488;50.846;4.078;2022-11-20T04:08:44;5.60;99.90
20658;DHT22;10488;50.846;4.078;2022-11-20T04:11:14;5.60;99.90
20658;DHT22;10488;50.846;4.078;2022-11-20T04:13:42;5.50;99.90
20658;DHT22;10488;50.846;4.078;2022-11-20T04:16:12;5.50;99.90
20658;DHT22;10488;50.846;4.078;2022-11-20T04:18:39;5.60;99.90
20658;DHT22;10488;50.846;4.078;2022-11-20T04:21:07;5.70;99.90
20658;DHT22;10488;50.846;4.078;2022-11-20T04:23:33;5.70;99.90
20658;DHT22;10488;50.846;4.078;2022-11-20T04:26:07;5.70;99.90
20658;DHT22;10488;50.846;4.078;2022-11-20T04:28:33;5.70;99.90
20658;DHT22;10488;50.846;4.078;2022-11-20T04:31:07;5.60;99.90
20658;DHT22;10488;50.846;4.078;2022-11-20T04:33:34;5.60;99.90
20658;DHT22;10488;50.846;4.078;2022-11-20T04:36:04;5.60;99.90
20658;DHT22;10488;50.846;4.078;2022-11-20T04:38:30;5.70;99.90
20658;DHT22;10488;50.846;4.078;2022-11-20T04:41:01;5.70;99.90
20658;DHT22;10488;50.846;4.078;2022-11-20T04:43:29;5.60;99.90
20658;DHT22;10488;50.846;4.078;2022-11-20T04:45:55;5.60;99.90
20658;DHT22;10488;50.846;4.078;2022-11-20T04:48:22;5.50;99.90
20658;DHT22;10488;50.846;4.078;2022-11-20T04:50:48;5.60;99.90
20658;DHT22;10488;50.846;4.078;2022-11-20T04:53:17;5.70;99.90
20658;DHT22;10488;50.846;4.078;2022-11-20T04:55:44;5.80;99.90
20658;DHT22;10488;50.846;4.078;2022-11-20T04:58:10;5.90;99.90
20658;DHT22;10488;50.846;4.078;2022-11-20T05:00:36;5.80;99.90
20658;DHT22;10488;50.846;4.078;2022-11-20T05:03:01;5.80;99.90
20658;DHT22;10488;50.846;4.078;2022-11-20T05:05:28;5.80;99.90
20658;DHT22;10488;50.846;4.078;2022-11-20T05:07:58;5.70;99.90
20658;DHT22;10488;50.846;4.078;2022-11-20T05:10:27;5.60;99.90
20658;DHT22;10488;50.846;4.078;2022-11-20T05:12:53;5.50;99.90
20658;DHT22;10488;50.846;4.078;2022-11-20T05:15:18;5.50;99.90
20658;DHT22;10488;50.846;4.078;2022-11-20T05:17:51;5.50;99.90
20658;DHT22;10488;50.846;4.078;2022-11-20T05:20:17;5.40;99.90
20658;DHT22;10488;50.846;4.078;2022-11-20T05:22:43;5.50;99.90
20658;DHT22;10488;50.846;4.078;2022-11-20T05:25:11;5.60;99.90
20658;DHT22;10488;50.846;4.078;2022-11-20T05:27:37;5.70;99.90
20658;DHT22;10488;50.846;4.078;2022-11-20T05:30:04;5.80;99.90
20658;DHT22;10488;50.846;4.078;2022-11-20T05:32:30;5.70;99.90
20658;DHT22;10488;50.846;4.078;2022-11-20T05:34:57;5.70;99.90
20658;DHT22;10488;50.846;4.078;2022-11-20T05:37:23;5.60;99.90
20658;DHT22;10488;50.846;4.078;2022-11-20T05:39:49;5.50;99.90
20658;DHT22;10488;50.846;4.078;2022-11-20T05:42:14;5.50;99.90
20658;DHT22;10488;50.846;4.078;2022-11-20T05:44:55;5.50;99.90
20658;DHT22;10488;50.846;4.078;2022-11-20T05:47:22;5.50;99.90
20658;DHT22;10488;50.846;4.078;2022-11-20T05:49:49;5.60;99.90
20658;DHT22;10488;50.846;4.078;2022-11-20T05:52:16;5.70;99.90
20658;DHT22;10488;50.846;4.078;2022-11-20T05:54:41;5.60;99.90
20658;DHT22;10488;50.846;4.078;2022-11-20T05:57:08;5.70;99.90
20658;DHT22;10488;50.846;4.078;2022-11-20T05:59:34;5.70;99.90
20658;DHT22;10488;50.846;4.078;2022-11-20T06:02:00;5.70;99.90
20658;DHT22;10488;50.846;4.078;2022-11-20T06:04:27;5.60;99.90
20658;DHT22;10488;50.846;4.078;2022-11-20T06:06:53;5.60;99.90
20658;DHT22;10488;50.846;4.078;2022-11-20T06:09:19;5.60;99.90
20658;DHT22;10488;50.846;4.078;2022-11-20T06:11:45;5.70;99.90
20658;DHT22;10488;50.846;4.078;2022-11-20T06:14:11;5.70;99.90
20658;DHT22;10488;50.846;4.078;2022-11-20T06:16:38;5.60;99.90
20658;DHT22;10488;50.846;4.078;2022-11-20T06:19:04;5.50;99.90
20658;DHT22;10488;50.846;4.078;2022-11-20T06:21:31;5.50;99.90
20658;DHT22;10488;50.846;4.078;2022-11-20T06:23:58;5.60;99.90
20658;DHT22;10488;50.846;4.078;2022-11-20T06:26:26;5.70;99.90
20658;DHT22;10488;50.846;4.078;2022-11-20T06:28:53;5.70;99.90
20658;DHT22;10488;50.846;4.078;2022-11-20T06:31:22;5.80;99.90
20658;DHT22;10488;50.846;4.078;2022-11-20T06:33:50;5.90;99.90
20658;DHT22;10488;50.846;4.078;2022-11-20T06:36:17;5.90;99.90
20658;DHT22;10488;50.846;4.078;2022-11-20T06:38:45;6.00;99.90
20658;DHT22;10488;50.846;4.078;2022-11-20T06:41:14;6.00;99.90
20658;DHT22;10488;50.846;4.078;2022-11-20T06:43:42;6.10;99.90
20658;DHT22;10488;50.846;4.078;2022-11-20T06:46:11;6.10;99.90
20658;DHT22;10488;50.846;4.078;2022-11-20T06:48:39;6.10;99.90
20658;DHT22;10488;50.846;4.078;2022-11-20T06:51:06;6.00;99.90
20658;DHT22;10488;50.846;4.078;2022-11-20T06:53:34;6.10;99.90
20658;DHT22;10488;50.846;4.078;2022-11-20T06:56:00;6.10;99.90
20658;DHT22;10488;50.846;4.078;2022-11-20T06:58:30;6.10;99.90
20658;DHT22;10488;50.846;4.078;2022-11-20T07:01:03;6.10;99.90
20658;DHT22;10488;50.846;4.078;2022-11-20T07:03:29;6.10;99.90
20658;DHT22;10488;50.846;4.078;2022-11-20T07:05:56;6.10;99.90
20658;DHT22;10488;50.846;4.078;2022-11-20T07:08:23;6.10;99.90
20658;DHT22;10488;50.846;4.078;2022-11-20T07:10:49;6.10;99.90
20658;DHT22;10488;50.846;4.078;2022-11-20T07:13:14;6.20;99.90
20658;DHT22;10488;50.846;4.078;2022-11-20T07:15:40;6.20;99.90
20658;DHT22;10488;50.846;4.078;2022-11-20T07:18:06;6.20;99.90
20658;DHT22;10488;50.846;4.078;2022-11-20T07:20:32;6.20;99.90
20658;DHT22;10488;50.846;4.078;2022-11-20T07:23:01;6.20;99.90
20658;DHT22;10488;50.846;4.078;2022-11-20T07:25:28;6.20;99.90
20658;DHT22;10488;50.846;4.078;2022-11-20T07:27:58;6.20;99.90
20658;DHT22;10488;50.846;4.078;2022-11-20T07:30:25;6.10;99.90
20658;DHT22;10488;50.846;4.078;2022-11-20T07:32:52;6.10;99.90
20658;DHT22;10488;50.846;4.078;2022-11-20T07:35:19;6.00;99.90
20658;DHT22;10488;50.846;4.078;2022-11-20T07:37:46;6.10;99.90
20658;DHT22;10488;50.846;4.078;2022-11-20T07:40:13;6.20;99.90
20658;DHT22;10488;50.846;4.078;2022-11-20T07:42:39;6.20;99.90
20658;DHT22;10488;50.846;4.078;2022-11-20T07:45:05;6.30;99.90
20658;DHT22;10488;50.846;4.078;2022-11-20T07:47:39;6.20;99.90
20658;DHT22;10488;50.846;4.078;2022-11-20T07:50:05;6.30;99.90
20658;DHT22;10488;50.846;4.078;2022-11-20T07:52:31;6.30;99.90
20658;DHT22;10488;50.846;4.078;2022-11-20T07:54:58;6.40;99.90
20658;DHT22;10488;50.846;4.078;2022-11-20T07:57:23;6.40;99.90
20658;DHT22;10488;50.846;4.078;2022-11-20T07:59:50;6.30;99.90
20658;DHT22;10488;50.846;4.078;2022-11-20T08:02:15;6.30;99.90
20658;DHT22;10488;50.846;4.078;2022-11-20T08:04:41;6.20;99.90
20658;DHT22;10488;50.846;4.078;2022-11-20T08:07:07;6.20;99.90
20658;DHT22;10488;50.846;4.078;2022-11-20T08:09:32;6.20;99.90
20658;DHT22;10488;50.846;4.078;2022-11-20T08:11:58;6.30;99.90
20658;DHT22;10488;50.846;4.078;2022-11-20T08:14:42;6.40;99.90
20658;DHT22;10488;50.846;4.078;2022-11-20T08:17:08;6.50;99.90
20658;DHT22;10488;50.846;4.078;2022-11-20T08:19:34;6.60;99.90
20658;DHT22;10488;50.846;4.078;2022-11-20T08:22:00;6.60;99.90
20658;DHT22;10488;50.846;4.078;2022-11-20T08:24:25;6.70;99.90
20658;DHT22;10488;50.846;4.078;2022-11-20T08:26:52;6.70;99.90
20658;DHT22;10488;50.846;4.078;2022-11-20T08:29:18;6.80;99.90
20658;DHT22;10488;50.846;4.078;2022-11-20T08:31:44;6.70;99.90
20658;DHT22;10488;50.846;4.078;2022-11-20T08:34:10;6.70;99.90
20658;DHT22;10488;50.846;4.078;2022-11-20T08:36:36;6.90;99.90
20658;DHT22;10488;50.846;4.078;2022-11-20T08:39:02;7.00;99.90
20658;DHT22;10488;50.846;4.078;2022-11-20T08:41:30;7.10;99.90
20658;DHT22;10488;50.846;4.078;2022-11-20T08:44:03;7.10;99.90
20658;DHT22;10488;50.846;4.078;2022-11-20T08:46:34;7.10;99.90
20658;DHT22;10488;50.846;4.078;2022-11-20T08:49:05;7.20;99.90
20658;DHT22;10488;50.846;4.078;2022-11-20T08:51:31;7.30;99.90
20658;DHT22;10488;50.846;4.078;2022-11-20T08:53:57;7.40;99.90
20658;DHT22;10488;50.846;4.078;2022-11-20T08:56:23;7.20;99.90
20658;DHT22;10488;50.846;4.078;2022-11-20T08:58:50;7.20;99.90
20658;DHT22;10488;50.846;4.078;2022-11-20T09:01:17;7.30;99.90
20658;DHT22;10488;50.846;4.078;2022-11-20T09:03:42;7.40;99.90
20658;DHT22;10488;50.846;4.078;2022-11-20T09:06:08;7.50;99.90
20658;DHT22;10488;50.846;4.078;2022-11-20T09:08:34;7.70;99.90
20658;DHT22;10488;50.846;4.078;2022-11-20T09:11:02;7.80;99.90
20658;DHT22;10488;50.846;4.078;2022-11-20T09:13:28;7.80;99.90
20658;DHT22;10488;50.846;4.078;2022-11-20T09:16:03;7.90;99.90
20658;DHT22;10488;50.846;4.078;2022-11-20T09:18:30;7.70;99.90
20658;DHT22;10488;50.846;4.078;2022-11-20T09:21:03;7.60;99.90
20658;DHT22;10488;50.846;4.078;2022-11-20T09:23:32;7.60;99.90
20658;DHT22;10488;50.846;4.078;2022-11-20T09:26:02;7.70;99.90
20658;DHT22;10488;50.846;4.078;2022-11-20T09:28:29;7.80;99.90
20658;DHT22;10488;50.846;4.078;2022-11-20T09:30:54;7.90;99.90
20658;DHT22;10488;50.846;4.078;2022-11-20T09:33:20;7.90;99.90
20658;DHT22;10488;50.846;4.078;2022-11-20T09:35:46;7.90;99.90
20658;DHT22;10488;50.846;4.078;2022-11-20T09:38:13;7.90;99.90
20658;DHT22;10488;50.846;4.078;2022-11-20T09:43:26;8.10;99.90
20658;DHT22;10488;50.846;4.078;2022-11-20T09:49:13;8.30;99.90
20658;DHT22;10488;50.846;4.078;2022-11-20T09:51:56;8.20;99.90
20658;DHT22;10488;50.846;4.078;2022-11-20T09:54:29;8.20;99.90
20658;DHT22;10488;50.846;4.078;2022-11-20T09:57:00;8.40;99.90
20658;DHT22;10488;50.846;4.078;2022-11-20T10:00:12;8.20;99.90
20658;DHT22;10488;50.846;4.078;2022-11-20T10:10:29;8.40;99.90
20658;DHT22;10488;50.846;4.078;2022-11-20T10:13:08;8.60;99.90
20658;DHT22;10488;50.846;4.078;2022-11-20T10:18:29;8.90;99.90
20658;DHT22;10488;50.846;4.078;2022-11-20T10:29:17;9.20;99.90
20658;DHT22;10488;50.846;4.078;2022-11-20T10:31:51;9.10;99.90
20658;DHT22;10488;50.846;4.078;2022-11-20T10:34:34;9.10;99.90
20658;DHT22;10488;50.846;4.078;2022-11-20T10:37:11;9.20;99.90
20658;DHT22;10488;50.846;4.078;2022-11-20T10:39:47;9.10;99.90
20658;DHT22;10488;50.846;4.078;2022-11-20T10:42:27;9.10;99.90
20658;DHT22;10488;50.846;4.078;2022-11-20T10:45:09;9.20;99.90
20658;DHT22;10488;50.846;4.078;2022-11-20T10:47:38;9.20;99.90
20658;DHT22;10488;50.846;4.078;2022-11-20T10:50:08;9.10;99.90
20658;DHT22;10488;50.846;4.078;2022-11-20T10:55:42;9.30;99.90
20658;DHT22;10488;50.846;4.078;2022-11-20T11:00:41;9.50;99.90
20658;DHT22;10488;50.846;4.078;2022-11-20T11:03:23;9.60;99.90
20658;DHT22;10488;50.846;4.078;2022-11-20T11:05:56;9.50;99.90
20658;DHT22;10488;50.846;4.078;2022-11-20T11:08:26;9.40;99.90
20658;DHT22;10488;50.846;4.078;2022-11-20T11:10:59;9.50;99.90
20658;DHT22;10488;50.846;4.078;2022-11-20T11:13:28;9.40;99.90
20658;DHT22;10488;50.846;4.078;2022-11-20T11:15:55;9.40;99.90
20658;DHT22;10488;50.846;4.078;2022-11-20T11:18:25;9.60;99.90
20658;DHT22;10488;50.846;4.078;2022-11-20T11:20:52;9.50;99.90
20658;DHT22;10488;50.846;4.078;2022-11-20T11:23:39;9.40;99.90
20658;DHT22;10488;50.846;4.078;2022-11-20T11:26:18;9.40;99.90
20658;DHT22;10488;50.846;4.078;2022-11-20T11:28:59;9.50;99.90
20658;DHT22;10488;50.846;4.078;2022-11-20T11:31:33;9.50;99.90
20658;DHT22;10488;50.846;4.078;2022-11-20T11:34:06;9.50;99.90
20658;DHT22;10488;50.846;4.078;2022-11-20T11:36:34;9.40;99.90
20658;DHT22;10488;50.846;4.078;2022-11-20T11:39:00;9.40;99.90
20658;DHT22;10488;50.846;4.078;2022-11-20T11:41:31;9.30;99.90
20658;DHT22;10488;50.846;4.078;2022-11-20T11:44:01;9.20;99.90
20658;DHT22;10488;50.846;4.078;2022-11-20T11:46:53;9.20;99.90
20658;DHT22;10488;50.846;4.078;2022-11-20T11:49:20;9.20;99.90
20658;DHT22;10488;50.846;4.078;2022-11-20T11:57:03;8.90;99.90
20658;DHT22;10488;50.846;4.078;2022-11-20T12:10:08;8.70;99.90
20658;DHT22;10488;50.846;4.078;2022-11-20T12:12:44;8.60;99.90
20658;DHT22;10488;50.846;4.078;2022-11-20T12:15:22;8.60;99.90
20658;DHT22;10488;50.846;4.078;2022-11-20T12:17:48;8.70;99.90
20658;DHT22;10488;50.846;4.078;2022-11-20T12:20:24;8.80;99.90
20658;DHT22;10488;50.846;4.078;2022-11-20T12:23:16;8.80;99.90
20658;DHT22;10488;50.846;4.078;2022-11-20T12:25:46;8.70;99.90
20658;DHT22;10488;50.846;4.078;2022-11-20T12:34:03;8.70;99.90
20658;DHT22;10488;50.846;4.078;2022-11-20T12:36:47;8.80;99.90
20658;DHT22;10488;50.846;4.078;2022-11-20T12:39:30;9.00;99.90
20658;DHT22;10488;50.846;4.078;2022-11-20T12:45:07;9.10;99.90
20658;DHT22;10488;50.846;4.078;2022-11-20T12:53:18;9.10;99.90
20658;DHT22;10488;50.846;4.078;2022-11-20T13:01:25;8.70;99.90
20658;DHT22;10488;50.846;4.078;2022-11-20T13:06:44;8.60;99.90
20658;DHT22;10488;50.846;4.078;2022-11-20T13:09:13;8.70;99.90
20658;DHT22;10488;50.846;4.078;2022-11-20T13:12:06;8.70;99.90
20658;DHT22;10488;50.846;4.078;2022-11-20T13:19:52;8.70;99.90
20658;DHT22;10488;50.846;4.078;2022-11-20T13:22:41;8.60;99.90
20658;DHT22;10488;50.846;4.078;2022-11-20T13:25:28;8.50;99.90
20658;DHT22;10488;50.846;4.078;2022-11-20T13:27:56;8.50;99.90
20658;DHT22;10488;50.846;4.078;2022-11-20T13:30:24;8.60;99.90
20658;DHT22;10488;50.846;4.078;2022-11-20T13:33:05;8.70;99.90
20658;DHT22;10488;50.846;4.078;2022-11-20T13:35:37;8.60;99.90
20658;DHT22;10488;50.846;4.078;2022-11-20T13:38:11;8.60;99.90
20658;DHT22;10488;50.846;4.078;2022-11-20T13:40:51;8.60;99.90
20658;DHT22;10488;50.846;4.078;2022-11-20T13:43:27;8.60;99.90
20658;DHT22;10488;50.846;4.078;2022-11-20T13:45:55;8.70;99.90
20658;DHT22;10488;50.846;4.078;2022-11-20T13:48:25;8.80;99.90
20658;DHT22;10488;50.846;4.078;2022-11-20T13:56:19;8.70;99.90
20658;DHT22;10488;50.846;4.078;2022-11-20T14:01:24;8.80;99.90
20658;DHT22;10488;50.846;4.078;2022-11-20T14:03:51;8.90;99.90
20658;DHT22;10488;50.846;4.078;2022-11-20T14:08:48;8.80;99.90
20658;DHT22;10488;50.846;4.078;2022-11-20T14:11:19;8.80;99.90
20658;DHT22;10488;50.846;4.078;2022-11-20T14:16:31;8.60;99.90
20658;DHT22;10488;50.846;4.078;2022-11-20T14:19:11;8.70;99.90
20658;DHT22;10488;50.846;4.078;2022-11-20T14:21:43;8.80;99.90
20658;DHT22;10488;50.846;4.078;2022-11-20T14:24:13;8.80;99.90
20658;DHT22;10488;50.846;4.078;2022-11-20T14:26:44;8.80;99.90
20658;DHT22;10488;50.846;4.078;2022-11-20T14:29:18;8.70;99.90
20658;DHT22;10488;50.846;4.078;2022-11-20T14:31:45;8.80;99.90
20658;DHT22;10488;50.846;4.078;2022-11-20T14:34:21;8.80;99.90
20658;DHT22;10488;50.846;4.078;2022-11-20T14:36:47;9.00;99.90
20658;DHT22;10488;50.846;4.078;2022-11-20T14:39:28;9.00;99.90
20658;DHT22;10488;50.846;4.078;2022-11-20T14:41:55;9.10;99.90
20658;DHT22;10488;50.846;4.078;2022-11-20T14:44:26;9.10;99.90
20658;DHT22;10488;50.846;4.078;2022-11-20T14:46:52;9.00;99.90
20658;DHT22;10488;50.846;4.078;2022-11-20T14:49:20;9.10;99.90
20658;DHT22;10488;50.846;4.078;2022-11-20T14:51:46;9.10;99.90
20658;DHT22;10488;50.846;4.078;2022-11-20T14:54:19;9.20;99.90
20658;DHT22;10488;50.846;4.078;2022-11-20T14:56:59;9.40;99.90
20658;DHT22;10488;50.846;4.078;2022-11-20T14:59:30;9.40;99.90
20658;DHT22;10488;50.846;4.078;2022-11-20T15:02:09;9.50;99.90
20658;DHT22;10488;50.846;4.078;2022-11-20T15:04:49;9.70;99.90
20658;DHT22;10488;50.846;4.078;2022-11-20T15:07:27;9.60;99.90
20658;DHT22;10488;50.846;4.078;2022-11-20T15:10:06;9.40;99.90
20658;DHT22;10488;50.846;4.078;2022-11-20T15:12:39;9.60;99.90
20658;DHT22;10488;50.846;4.078;2022-11-20T15:15:08;9.60;99.90
20658;DHT22;10488;50.846;4.078;2022-11-20T15:17:38;9.70;99.90
20658;DHT22;10488;50.846;4.078;2022-11-20T15:20:13;9.60;99.90
20658;DHT22;10488;50.846;4.078;2022-11-20T15:22:40;9.80;99.90
20658;DHT22;10488;50.846;4.078;2022-11-20T15:25:13;9.70;99.90
20658;DHT22;10488;50.846;4.078;2022-11-20T15:27:39;9.50;99.90
20658;DHT22;10488;50.846;4.078;2022-11-20T15:30:15;9.60;99.90
20658;DHT22;10488;50.846;4.078;2022-11-20T15:32:42;9.60;99.90
20658;DHT22;10488;50.846;4.078;2022-11-20T15:35:08;9.60;99.90
20658;DHT22;10488;50.846;4.078;2022-11-20T15:37:35;9.70;99.90
20658;DHT22;10488;50.846;4.078;2022-11-20T15:40:01;9.60;99.90
20658;DHT22;10488;50.846;4.078;2022-11-20T15:42:26;9.60;99.90
20658;DHT22;10488;50.846;4.078;2022-11-20T15:44:52;9.50;99.90
20658;DHT22;10488;50.846;4.078;2022-11-20T15:47:19;9.30;99.90
20658;DHT22;10488;50.846;4.078;2022-11-20T15:49:46;9.20;99.90
20658;DHT22;10488;50.846;4.078;2022-11-20T15:52:12;9.30;99.90
20658;DHT22;10488;50.846;4.078;2022-11-20T15:54:38;9.40;99.90
20658;DHT22;10488;50.846;4.078;2022-11-20T15:57:04;9.50;99.90
20658;DHT22;10488;50.846;4.078;2022-11-20T15:59:29;9.40;99.90
20658;DHT22;10488;50.846;4.078;2022-11-20T16:01:55;9.60;99.90
20658;DHT22;10488;50.846;4.078;2022-11-20T16:04:20;9.70;99.90
20658;DHT22;10488;50.846;4.078;2022-11-20T16:06:46;9.70;99.90
20658;DHT22;10488;50.846;4.078;2022-11-20T16:09:12;9.70;99.90
20658;DHT22;10488;50.846;4.078;2022-11-20T16:11:38;9.60;99.90
20658;DHT22;10488;50.846;4.078;2022-11-20T16:14:04;9.60;99.90
20658;DHT22;10488;50.846;4.078;2022-11-20T16:16:49;9.60;99.90
20658;DHT22;10488;50.846;4.078;2022-11-20T16:19:15;9.30;99.90
20658;DHT22;10488;50.846;4.078;2022-11-20T16:21:42;9.00;99.90
20658;DHT22;10488;50.846;4.078;2022-11-20T16:24:13;9.00;99.90
20658;DHT22;10488;50.846;4.078;2022-11-20T16:26:39;9.00;99.90
20658;DHT22;10488;50.846;4.078;2022-11-20T16:29:06;9.00;99.90
20658;DHT22;10488;50.846;4.078;2022-11-20T16:31:32;8.90;99.90
20658;DHT22;10488;50.846;4.078;2022-11-20T16:34:00;9.00;99.90
20658;DHT22;10488;50.846;4.078;2022-11-20T16:36:27;9.00;99.90
20658;DHT22;10488;50.846;4.078;2022-11-20T16:38:58;9.00;99.90
20658;DHT22;10488;50.846;4.078;2022-11-20T16:41:26;9.10;99.90
20658;DHT22;10488;50.846;4.078;2022-11-20T16:43:54;9.00;99.90
20658;DHT22;10488;50.846;4.078;2022-11-20T16:46:23;9.10;99.90
20658;DHT22;10488;50.846;4.078;2022-11-20T16:49:00;9.10;99.90
20658;DHT22;10488;50.846;4.078;2022-11-20T16:51:29;9.20;99.90
20658;DHT22;10488;50.846;4.078;2022-11-20T16:53:56;9.20;99.90
20658;DHT22;10488;50.846;4.078;2022-11-20T16:56:25;9.00;99.90
20658;DHT22;10488;50.846;4.078;2022-11-20T16:58:54;8.90;99.90
20658;DHT22;10488;50.846;4.078;2022-11-20T17:01:21;8.80;99.90
20658;DHT22;10488;50.846;4.078;2022-11-20T17:04:14;8.80;99.90
20658;DHT22;10488;50.846;4.078;2022-11-20T17:06:43;8.70;99.90
20658;DHT22;10488;50.846;4.078;2022-11-20T17:09:10;8.70;99.90
20658;DHT22;10488;50.846;4.078;2022-11-20T17:11:37;8.70;99.90
20658;DHT22;10488;50.846;4.078;2022-11-20T17:14:04;8.80;99.90
20658;DHT22;10488;50.846;4.078;2022-11-20T17:16:33;8.70;99.90
20658;DHT22;10488;50.846;4.078;2022-11-20T17:19:00;8.60;99.90
20658;DHT22;10488;50.846;4.078;2022-11-20T17:21:28;8.60;99.90
20658;DHT22;10488;50.846;4.078;2022-11-20T17:23:54;8.40;99.90
20658;DHT22;10488;50.846;4.078;2022-11-20T17:26:22;8.50;99.90
20658;DHT22;10488;50.846;4.078;2022-11-20T17:28:59;8.60;99.90
20658;DHT22;10488;50.846;4.078;2022-11-20T17:31:26;8.80;99.90